Time,TemperatureF,DewpointF,PressureIn,WindDirection,WindDirectionDegrees,WindSpeedMPH,WindSpeedGustMPH,Humidity,HourlyPrecipIn,Conditions,Clouds,dailyrainin,SoftwareType,DateUTC
2013-06-26 07:34:00,54.0,49.0,-100.00,East,97,6.0,7.0,83,-99.99,,,-99.99,,2013-06-26 14:34:00,
2013-06-26 07:42:00,54.0,49.0,-100.00,East,91,8.0,8.0,82,-99.99,,,-99.99,,2013-06-26 14:42:00,
2013-06-26 07:52:00,54.0,49.0,-100.00,East,96,8.0,8.0,81,-99.99,,,-99.99,,2013-06-26 14:52:00,
2013-06-26 08:02:00,54.0,49.0,-100.00,East,96,6.0,6.0,83,-99.99,,,-99.99,,2013-06-26 15:02:00,
2013-06-26 08:11:00,55.0,50.0,-100.00,ESE,109,7.0,8.0,83,-99.99,,,-99.99,,2013-06-26 15:11:00,
2013-06-26 08:22:00,55.0,50.0,-100.00,East,97,7.0,7.0,82,-99.99,,,-99.99,,2013-06-26 15:22:00,
2013-06-26 08:34:00,55.0,50.0,-100.00,East,92,6.0,6.0,82,-99.99,,,-99.99,,2013-06-26 15:34:00,
2013-06-26 08:43:00,55.0,50.0,-100.00,East,93,5.0,5.0,83,-99.99,,,-99.99,,2013-06-26 15:43:00,
2013-06-26 08:53:00,55.0,50.0,-100.00,ESE,102,6.0,7.0,81,-99.99,,,-99.99,,2013-06-26 15:53:00,
2013-06-26 09:01:00,56.0,50.0,-100.00,East,92,6.0,7.0,81,-99.99,,,-99.99,,2013-06-26 16:01:00,
2013-06-26 09:11:00,56.0,49.0,-100.00,East,88,3.0,5.0,77,-99.99,,,-99.99,,2013-06-26 16:11:00,
2013-06-26 09:34:00,57.0,50.0,-100.00,ENE,64,2.0,3.0,75,-99.99,,,-99.99,,2013-06-26 16:34:00,
2013-06-26 09:43:00,58.0,50.0,-100.00,ENE,58,4.0,5.0,76,-99.99,,,-99.99,,2013-06-26 16:43:00,
2013-06-26 09:52:00,58.0,53.0,-100.00,NE,41,3.0,5.0,82,-99.99,,,-99.99,,2013-06-26 16:52:00,
2013-06-26 10:01:00,58.0,53.0,-100.00,North,3,3.0,4.0,83,-99.99,,,-99.99,,2013-06-26 17:01:00,
2013-06-26 10:11:00,58.0,53.0,-100.00,NNE,26,2.0,5.0,83,-99.99,,,-99.99,,2013-06-26 17:11:00,
2013-06-26 10:23:00,58.0,53.0,-100.00,NNE,26,2.0,5.0,83,-99.99,,,-99.99,,2013-06-26 17:23:00,
2013-06-26 10:33:00,59.0,55.0,-100.00,NNW,340,3.0,5.0,84,-99.99,,,-99.99,,2013-06-26 17:33:00,
2013-06-26 10:43:00,60.0,55.0,-100.00,NNE,15,3.0,4.0,84,-99.99,,,-99.99,,2013-06-26 17:43:00,
2013-06-26 10:52:00,60.0,55.0,-100.00,North,10,4.0,6.0,83,-99.99,,,-99.99,,2013-06-26 17:52:00,
2013-06-26 11:01:00,60.0,54.0,-100.00,NNW,329,1.0,5.0,79,-99.99,,,-99.99,,2013-06-26 18:01:00,
2013-06-26 11:22:00,60.0,54.0,-100.00,North,9,5.0,8.0,80,-99.99,,,-99.99,,2013-06-26 18:22:00,
2013-06-26 11:34:00,61.0,55.0,-100.00,North,356,4.0,6.0,80,-99.99,,,-99.99,,2013-06-26 18:34:00,
2013-06-26 11:43:00,61.0,55.0,-100.00,North,353,3.0,6.0,80,-99.99,,,-99.99,,2013-06-26 18:43:00,
2013-06-26 11:52:00,61.0,55.0,-100.00,North,353,3.0,6.0,80,-99.99,,,-99.99,,2013-06-26 18:52:00,
2013-06-26 12:01:00,62.0,55.0,-100.00,NNW,348,5.0,7.0,79,-99.99,,,-99.99,,2013-06-26 19:01:00,
2013-06-26 12:11:00,61.0,55.0,-100.00,WNW,296,4.0,6.0,80,-99.99,,,-99.99,,2013-06-26 19:11:00,
2013-06-26 12:32:00,61.0,56.0,-100.00,NW,315,7.0,9.0,84,-99.99,,,-99.99,,2013-06-26 19:32:00,
2013-06-26 12:42:00,60.0,55.0,-100.00,West,278,4.0,7.0,82,-99.99,,,-99.99,,2013-06-26 19:42:00,
2013-06-26 12:52:00,60.0,55.0,-100.00,West,268,3.0,6.0,82,-99.99,,,-99.99,,2013-06-26 19:52:00,
2013-06-26 13:01:00,60.0,55.0,-100.00,NW,304,4.0,6.0,81,-99.99,,,-99.99,,2013-06-26 20:01:00,
2013-06-26 13:12:00,60.0,55.0,-100.00,NW,304,4.0,6.0,81,-99.99,,,-99.99,,2013-06-26 20:12:00,
2013-06-26 13:22:00,61.0,55.0,-100.00,WNW,289,3.0,6.0,81,-99.99,,,-99.99,,2013-06-26 20:22:00,
2013-06-26 13:33:00,63.0,55.0,-100.00,NW,321,6.0,9.0,75,-99.99,,,-99.99,,2013-06-26 20:33:00,
2013-06-26 13:43:00,64.0,54.0,-100.00,NW,323,6.0,10.0,69,-99.99,,,-99.99,,2013-06-26 20:43:00,
2013-06-26 13:52:00,66.0,54.0,-100.00,NNW,329,7.0,12.0,65,-99.99,,,-99.99,,2013-06-26 20:52:00,
2013-06-26 14:02:00,67.0,54.0,-100.00,NW,307,6.0,10.0,64,-99.99,,,-99.99,,2013-06-26 21:02:00,
2013-06-26 14:11:00,67.0,54.0,-100.00,WNW,288,5.0,10.0,64,-99.99,,,-99.99,,2013-06-26 21:11:00,
2013-06-26 14:33:00,66.0,53.0,-100.00,West,278,8.0,12.0,64,-99.99,,,-99.99,,2013-06-26 21:33:00,
2013-06-26 14:43:00,65.0,54.0,-100.00,WNW,284,8.0,13.0,67,-99.99,,,-99.99,,2013-06-26 21:43:00,
2013-06-26 14:52:00,65.0,53.0,-100.00,WSW,252,8.0,12.0,66,-99.99,,,-99.99,,2013-06-26 21:52:00,
2013-06-26 15:01:00,65.0,54.0,-100.00,West,262,7.0,13.0,66,-99.99,,,-99.99,,2013-06-26 22:01:00,
2013-06-26 15:21:00,67.0,54.0,-100.00,West,266,10.0,16.0,63,-99.99,,,-99.99,,2013-06-26 22:21:00,
2013-06-26 15:33:00,67.0,54.0,-100.00,West,262,9.0,16.0,62,-99.99,,,-99.99,,2013-06-26 22:33:00,
2013-06-26 15:43:00,67.0,53.0,-100.00,WSW,254,10.0,17.0,61,-99.99,,,-99.99,,2013-06-26 22:43:00,
2013-06-26 15:52:00,67.0,53.0,-100.00,West,270,9.0,15.0,60,-99.99,,,-99.99,,2013-06-26 22:52:00,
2013-06-26 16:01:00,67.0,53.0,-100.00,West,268,13.0,19.0,61,-99.99,,,-99.99,,2013-06-26 23:01:00,
2013-06-26 16:11:00,66.0,53.0,-100.00,West,263,9.0,16.0,63,-99.99,,,-99.99,,2013-06-26 23:11:00,
2013-06-26 16:34:00,66.0,54.0,-100.00,West,272,12.0,18.0,64,-99.99,,,-99.99,,2013-06-26 23:34:00,
2013-06-26 16:43:00,67.0,54.0,-100.00,West,270,12.0,17.0,62,-99.99,,,-99.99,,2013-06-26 23:43:00,
2013-06-26 16:52:00,67.0,54.0,-100.00,West,270,12.0,20.0,61,-99.99,,,-99.99,,2013-06-26 23:52:00,
2013-06-26 17:01:00,67.0,54.0,-100.00,West,278,10.0,19.0,61,-99.99,,,-99.99,,2013-06-27 00:01:00,
2013-06-26 17:11:00,67.0,53.0,-100.00,WNW,284,13.0,24.0,60,-99.99,,,-99.99,,2013-06-27 00:11:00,
2013-06-26 17:22:00,66.0,52.0,-100.00,West,267,14.0,22.0,60,-99.99,,,-99.99,,2013-06-27 00:22:00,
2013-06-26 17:33:00,65.0,53.0,-100.00,West,278,11.0,19.0,63,-99.99,,,-99.99,,2013-06-27 00:33:00,
2013-06-26 17:42:00,65.0,52.0,-100.00,West,278,11.0,19.0,61,-99.99,,,-99.99,,2013-06-27 00:42:00,
2013-06-26 17:53:00,65.0,52.0,-100.00,West,264,10.0,17.0,62,-99.99,,,-99.99,,2013-06-27 00:53:00,
2013-06-26 18:01:00,66.0,52.0,-100.00,WNW,288,10.0,20.0,60,-99.99,,,-99.99,,2013-06-27 01:01:00,
2013-06-26 18:11:00,67.0,52.0,-100.00,WNW,295,8.0,15.0,58,-99.99,,,-99.99,,2013-06-27 01:11:00,
2013-06-26 18:21:00,66.0,52.0,-100.00,WNW,292,9.0,18.0,59,-99.99,,,-99.99,,2013-06-27 01:21:00,
2013-06-26 18:32:00,68.0,52.0,-100.00,NW,320,10.0,18.0,56,-99.99,,,-99.99,,2013-06-27 01:32:00,
2013-06-26 18:42:00,67.0,52.0,-100.00,West,280,8.0,14.0,57,-99.99,,,-99.99,,2013-06-27 01:42:00,
2013-06-26 18:52:00,67.0,52.0,-100.00,WNW,301,11.0,15.0,59,-99.99,,,-99.99,,2013-06-27 01:52:00,
2013-06-26 19:01:00,65.0,51.0,-100.00,West,264,8.0,12.0,60,-99.99,,,-99.99,,2013-06-27 02:01:00,
2013-06-26 19:11:00,64.0,51.0,-100.00,West,275,7.0,13.0,62,-99.99,,,-99.99,,2013-06-27 02:11:00,
2013-06-26 19:22:00,65.0,52.0,-100.00,West,271,8.0,12.0,62,-99.99,,,-99.99,,2013-06-27 02:22:00,
2013-06-26 19:32:00,65.0,52.0,-100.00,WSW,258,6.0,9.0,61,-99.99,,,-99.99,,2013-06-27 02:32:00,
2013-06-26 19:42:00,65.0,51.0,-100.00,WSW,254,6.0,9.0,60,-99.99,,,-99.99,,2013-06-27 02:42:00,
2013-06-26 19:52:00,65.0,52.0,-100.00,WSW,242,6.0,8.0,62,-99.99,,,-99.99,,2013-06-27 02:52:00,
2013-06-26 20:02:00,64.0,51.0,-100.00,WSW,252,6.0,9.0,61,-99.99,,,-99.99,,2013-06-27 03:02:00,
2013-06-26 20:11:00,64.0,50.0,-100.00,West,261,5.0,10.0,60,-99.99,,,-99.99,,2013-06-27 03:11:00,
2013-06-26 20:21:00,64.0,51.0,-100.00,West,265,5.0,6.0,61,-99.99,,,-99.99,,2013-06-27 03:21:00,
2013-06-26 20:32:00,64.0,50.0,-100.00,West,262,5.0,8.0,60,-99.99,,,-99.99,,2013-06-27 03:32:00,
2013-06-26 20:42:00,64.0,50.0,-100.00,WSW,246,6.0,8.0,60,-99.99,,,-99.99,,2013-06-27 03:42:00,
2013-06-26 20:52:00,64.0,50.0,-100.00,West,262,6.0,8.0,61,-99.99,,,-99.99,,2013-06-27 03:52:00,
2013-06-26 21:01:00,64.0,49.0,-100.00,West,262,5.0,6.0,59,-99.99,,,-99.99,,2013-06-27 04:01:00,
2013-06-26 21:11:00,63.0,50.0,-100.00,WNW,294,6.0,9.0,61,-99.99,,,-99.99,,2013-06-27 04:11:00,
2013-06-26 21:22:00,63.0,50.0,-100.00,WNW,301,6.0,8.0,62,-99.99,,,-99.99,,2013-06-27 04:22:00,
2013-06-26 21:32:00,63.0,50.0,-100.00,WNW,298,5.0,6.0,62,-99.99,,,-99.99,,2013-06-27 04:32:00,
2013-06-26 21:42:00,63.0,50.0,-100.00,WNW,285,4.0,5.0,62,-99.99,,,-99.99,,2013-06-27 04:42:00,
2013-06-26 21:52:00,63.0,50.0,-100.00,WNW,286,3.0,4.0,61,-99.99,,,-99.99,,2013-06-27 04:52:00,
2013-06-26 22:02:00,63.0,48.0,-100.00,WNW,284,4.0,4.0,59,-99.99,,,-99.99,,2013-06-27 05:02:00,
2013-06-26 22:12:00,63.0,48.0,-100.00,WNW,287,5.0,5.0,58,-99.99,,,-99.99,,2013-06-27 05:12:00,
2013-06-26 22:32:00,62.0,49.0,-100.00,West,277,5.0,5.0,60,-99.99,,,-99.99,,2013-06-27 05:32:00,
2013-06-26 22:42:00,62.0,49.0,-100.00,WNW,296,5.0,5.0,61,-99.99,,,-99.99,,2013-06-27 05:42:00,
2013-06-26 22:53:00,62.0,49.0,-100.00,WNW,293,6.0,6.0,62,-99.99,,,-99.99,,2013-06-27 05:53:00,
2013-06-26 23:01:00,62.0,49.0,-100.00,WNW,297,7.0,7.0,61,-99.99,,,-99.99,,2013-06-27 06:01:00,
2013-06-26 23:12:00,62.0,49.0,-100.00,WNW,302,6.0,6.0,61,-99.99,,,-99.99,,2013-06-27 06:12:00,
2013-06-26 23:22:00,61.0,48.0,-100.00,NW,308,6.0,6.0,62,-99.99,,,-99.99,,2013-06-27 06:22:00,
2013-06-26 23:34:00,62.0,49.0,-100.00,NW,304,6.0,6.0,62,-99.99,,,-99.99,,2013-06-27 06:34:00,
2013-06-26 23:43:00,62.0,49.0,-100.00,NW,306,5.0,5.0,61,-99.99,,,-99.99,,2013-06-27 06:43:00,
2013-06-26 23:53:00,61.0,48.0,-100.00,NW,307,7.0,8.0,62,-99.99,,,-99.99,,2013-06-27 06:53:00,